createdAt,value
2023-04-09T00:00:08.613Z,100997.41
2023-04-09T00:02:13.771Z,100994.45
2023-04-09T00:04:19.139Z,100991.95
2023-04-09T00:06:24.296Z,100993.25
2023-04-09T00:08:29.377Z,100994.48
2023-04-09T00:10:34.442Z,101002.06
2023-04-09T00:12:39.566Z,101002.09
2023-04-09T00:14:44.624Z,101002.33
2023-04-09T00:16:49.625Z,101001
2023-04-09T00:18:55.073Z,101002.81
2023-04-09T00:21:00.142Z,101002.74
2023-04-09T00:23:05.239Z,100998.61
2023-04-09T00:25:10.348Z,100997.45
2023-04-09T00:27:15.462Z,101001.14
2023-04-09T00:29:20.577Z,100999.57
2023-04-09T00:31:25.812Z,100997.72
2023-04-09T00:33:31.024Z,100998.44
2023-04-09T00:35:36.180Z,100995.58
2023-04-09T00:37:41.365Z,100995.88
2023-04-09T00:39:46.403Z,100998.65
2023-04-09T00:41:51.461Z,100997.63
2023-04-09T00:43:56.528Z,100994.79
2023-04-09T00:46:01.710Z,100994.38
2023-04-09T00:48:06.969Z,101002.61
2023-04-09T00:50:11.993Z,100996.5
2023-04-09T00:52:17.039Z,101001.2
2023-04-09T00:54:22.129Z,100999.02
2023-04-09T00:56:27.192Z,100994.79
2023-04-09T00:58:32.278Z,100996.59
2023-04-09T01:00:37.400Z,101000.83
2023-04-09T01:02:42.906Z,101001.52
2023-04-09T01:04:48.360Z,101000.28
2023-04-09T01:06:53.413Z,101001.79
2023-04-09T01:08:58.487Z,101002.13
2023-04-09T01:11:03.582Z,101001.75
2023-04-09T01:13:08.630Z,100998.38
2023-04-09T01:15:13.690Z,100999.05
2023-04-09T01:17:18.810Z,101003.45
2023-04-09T01:19:24.254Z,101000.69
2023-04-09T01:21:29.348Z,101001.17
2023-04-09T01:23:34.398Z,101004.89
2023-04-09T01:25:39.458Z,101000.25
2023-04-09T01:27:44.693Z,101010.25
2023-04-09T01:29:49.764Z,101017.63
2023-04-09T01:31:54.847Z,101021.38
2023-04-09T01:34:00.153Z,101027.18
2023-04-09T01:36:05.231Z,101030.45
2023-04-09T01:38:10.375Z,101031.89
2023-04-09T01:40:15.434Z,101025.61
2023-04-09T01:42:20.530Z,101029.19
2023-04-09T01:44:25.665Z,101033.66
2023-04-09T01:46:31.025Z,101037.28
2023-04-09T01:48:36.163Z,101036.32
2023-04-09T01:50:41.180Z,101032.47
2023-04-09T01:52:46.365Z,101037.92
2023-04-09T01:54:51.376Z,101042.46
2023-04-09T01:56:56.420Z,101042.8
2023-04-09T01:59:01.508Z,101047.2
2023-04-09T02:01:06.727Z,101044.54
2023-04-09T02:03:11.905Z,101043.75
2023-04-09T02:05:17.365Z,101053.08
2023-04-09T02:07:22.380Z,101061.09
2023-04-09T02:09:27.407Z,101047.5
2023-04-09T02:11:32.529Z,101048.08
2023-04-09T02:13:37.556Z,101050.5
2023-04-09T02:15:42.739Z,101049.75
2023-04-09T02:17:48.025Z,101059.91
2023-04-09T02:19:53.219Z,101055.34
2023-04-09T02:21:58.342Z,101046.91
2023-04-09T02:24:03.447Z,101044.45
2023-04-09T02:26:08.572Z,101046.22
2023-04-09T02:28:13.629Z,101047
2023-04-09T02:30:18.667Z,101044.3
2023-04-09T02:32:23.848Z,101039.9
2023-04-09T02:34:29.122Z,101032.14
2023-04-09T02:36:34.205Z,101033.95
2023-04-09T02:38:39.237Z,101039.11
2023-04-09T02:40:44.295Z,101035.83
2023-04-09T02:42:49.411Z,101037.22
2023-04-09T02:44:54.491Z,101035.3
2023-04-09T02:46:59.616Z,101037.48
2023-04-09T02:49:04.746Z,101034.68
2023-04-09T02:51:09.779Z,101039.08
2023-04-09T02:53:14.888Z,101036.24
2023-04-09T02:55:19.957Z,101034.19
2023-04-09T02:57:25.059Z,101031.77
2023-04-09T02:59:30.079Z,101034.91
2023-04-09T03:01:35.276Z,101031.8
2023-04-09T03:03:40.657Z,101033.98
2023-04-09T03:05:46.070Z,101031.38
2023-04-09T03:07:51.147Z,101032.61
2023-04-09T03:09:56.217Z,101030.79
2023-04-09T03:12:01.232Z,101032.97
2023-04-09T03:14:06.282Z,101035.26
2023-04-09T03:16:11.387Z,101030.69
2023-04-09T03:18:16.590Z,101034.16
2023-04-09T03:20:21.642Z,101023.65
2023-04-09T03:22:26.657Z,101025.86
2023-04-09T03:24:31.747Z,101027.84
2023-04-09T03:26:36.806Z,101024.8
2023-04-09T03:28:41.850Z,101020.22
2023-04-09T03:30:46.930Z,101022.62
2023-04-09T03:32:52.039Z,101023.88
2023-04-09T03:34:57.161Z,101022.88
2023-04-09T03:37:02.317Z,101022.6
2023-04-09T03:39:07.481Z,101020.92
2023-04-09T03:41:12.646Z,101018.54
2023-04-09T03:43:17.678Z,101025.11
2023-04-09T03:45:22.719Z,101018.76
2023-04-09T03:47:27.970Z,101024.05
2023-04-09T03:49:33.076Z,101024.42
2023-04-09T03:51:38.066Z,101026.13
2023-04-09T03:53:43.226Z,101027.49
2023-04-09T03:55:48.261Z,101025
2023-04-09T03:57:53.294Z,101028.09
2023-04-09T03:59:58.467Z,101031.34
2023-04-09T04:02:03.614Z,101026.67
2023-04-09T04:04:08.892Z,101027.96
2023-04-09T04:06:14.232Z,101030.35
2023-04-09T04:08:19.260Z,101028.88
2023-04-09T04:10:24.276Z,101030.52
2023-04-09T04:12:29.371Z,101029.8
2023-04-09T04:14:34.414Z,101036.52
2023-04-09T04:16:39.677Z,101035.33
2023-04-09T04:18:44.904Z,101036.38
2023-04-09T04:20:50.030Z,101041.13
2023-04-09T04:22:55.088Z,101036.24
2023-04-09T04:25:00.165Z,101043.13
2023-04-09T04:27:05.254Z,101041.7
2023-04-09T04:29:10.384Z,101044.08
2023-04-09T04:31:15.529Z,101042.82
2023-04-09T04:33:20.654Z,101040.97
2023-04-09T04:35:25.826Z,101046.29
2023-04-09T04:37:30.941Z,101049.8
2023-04-09T04:39:35.987Z,101053.13
2023-04-09T04:41:41.023Z,101052.52
2023-04-09T04:43:46.091Z,101049.89
2023-04-09T04:45:53.603Z,101054.32
2023-04-09T04:47:58.999Z,101049.51
2023-04-09T04:50:04.199Z,101052.23
2023-04-09T04:52:09.261Z,101050.16
2023-04-09T04:54:14.268Z,101043.16
2023-04-09T04:56:19.313Z,101042.12
2023-04-09T04:58:24.366Z,101046.69
2023-04-09T05:00:29.629Z,101048.06
2023-04-09T05:02:34.942Z,101055.91
2023-04-09T05:04:40.233Z,101052.19
2023-04-09T05:06:45.282Z,101058.13
2023-04-09T05:08:50.657Z,101055.47
2023-04-09T05:10:56.340Z,101057.59
2023-04-09T05:13:01.512Z,101056.88
2023-04-09T05:15:06.679Z,101056.33
2023-04-09T05:17:11.750Z,101059.8
2023-04-09T05:19:16.921Z,101062.77
2023-04-09T05:21:22.180Z,101066.2
2023-04-09T05:23:27.222Z,101065.2
2023-04-09T05:25:32.281Z,101059.13
2023-04-09T05:27:37.379Z,101062.55
2023-04-09T05:29:42.477Z,101061.02
2023-04-09T05:31:47.500Z,101063.78
2023-04-09T05:33:52.512Z,101068.05
2023-04-09T05:35:57.735Z,101067.23
2023-04-09T05:38:02.951Z,101074.75
2023-04-09T05:40:07.984Z,101070.41
2023-04-09T05:42:13.128Z,101073.41
2023-04-09T05:44:18.187Z,101077.89
2023-04-09T05:46:23.323Z,101074.36
2023-04-09T05:48:28.440Z,101076.94
2023-04-09T05:50:53.644Z,101084.44
2023-04-09T05:52:59.975Z,101082.05
2023-04-09T05:55:05.051Z,101083.7
2023-04-09T05:57:10.108Z,101081.22
2023-04-09T05:59:15.159Z,101084.02
2023-04-09T06:01:20.186Z,101084.82
2023-04-09T06:03:25.511Z,101080.92
2023-04-09T06:05:30.866Z,101081.22
2023-04-09T06:07:36.030Z,101075.45
2023-04-09T06:09:41.072Z,101078.94
2023-04-09T06:11:46.142Z,101078.42
2023-04-09T06:13:51.513Z,101080.09
2023-04-09T06:15:57.017Z,101072.93
2023-04-09T06:18:02.449Z,101077.26
2023-04-09T06:20:07.629Z,101078.98
2023-04-09T06:22:12.719Z,101073.2
2023-04-09T06:24:17.762Z,101076.63
2023-04-09T06:26:22.785Z,101079.63
2023-04-09T06:28:27.852Z,101078.43
2023-04-09T06:30:33.014Z,101073.28
2023-04-09T06:32:54.129Z,101065.13
2023-04-09T06:35:00.005Z,101060.9
2023-04-09T06:37:05.148Z,101065.16
2023-04-09T06:39:10.242Z,101067.34
2023-04-09T06:41:15.402Z,101074.39
2023-04-09T06:43:20.558Z,101084.7
2023-04-09T06:45:25.637Z,101091.84
2023-04-09T06:47:30.854Z,101090.33
2023-04-09T06:49:36.023Z,101079.37
2023-04-09T06:51:41.084Z,101078.45
2023-04-09T06:53:46.379Z,101073.88
2023-04-09T06:55:51.528Z,101078.26
2023-04-09T06:57:56.957Z,101091.77
2023-04-09T07:00:02.122Z,101096.84
2023-04-09T07:02:07.571Z,101091.67
2023-04-09T07:04:13.431Z,101090.41
2023-04-09T07:06:18.889Z,101095.66
2023-04-09T07:08:24.024Z,101089.32
2023-04-09T07:10:29.097Z,101088.77
2023-04-09T07:12:34.123Z,101093.91
2023-04-09T07:14:39.260Z,101094.18
2023-04-09T07:16:44.370Z,101098.89
2023-04-09T07:18:49.502Z,101096.16
2023-04-09T07:20:54.546Z,101098.56
2023-04-09T07:22:59.883Z,101102.82
2023-04-09T07:25:05.313Z,101104.7
2023-04-09T07:27:10.388Z,101106.95
2023-04-09T07:29:15.413Z,101105.87
2023-04-09T07:31:20.591Z,101108.14
2023-04-09T07:33:25.705Z,101107.28
2023-04-09T07:35:31.074Z,101106.82
2023-04-09T07:37:36.519Z,101097.55
2023-04-09T07:39:41.779Z,101103.11
2023-04-09T07:41:46.851Z,101101.91
2023-04-09T07:43:51.928Z,101100.04
2023-04-09T07:45:57.048Z,101102.64
2023-04-09T07:48:02.270Z,101100.01
2023-04-09T07:50:07.402Z,101094.36
2023-04-09T07:52:12.436Z,101095.72
2023-04-09T07:54:17.660Z,101092.55
2023-04-09T07:56:22.824Z,101091.42
2023-04-09T07:58:27.905Z,101094.09
2023-04-09T08:00:32.986Z,101096.37
2023-04-09T08:02:38.105Z,101098.53
2023-04-09T08:04:43.975Z,101097.84
2023-04-09T08:06:49.467Z,101098.78
2023-04-09T08:08:55.230Z,101098.73
2023-04-09T08:11:00.294Z,101101.78
2023-04-09T08:13:05.426Z,101102.23
2023-04-09T08:15:10.483Z,101104.11
2023-04-09T08:17:15.561Z,101101.39
2023-04-09T08:19:20.732Z,101109.23
2023-04-09T08:21:25.865Z,101101.31
2023-04-09T08:23:30.981Z,101098
2023-04-09T08:25:36.002Z,101091.96
2023-04-09T08:27:41.194Z,101099.89
2023-04-09T08:29:46.220Z,101093.41
2023-04-09T08:31:51.353Z,101092.86
2023-04-09T08:33:56.495Z,101099.95
2023-04-09T08:36:04.420Z,101104.91
2023-04-09T08:38:09.566Z,101103.99
2023-04-09T08:40:14.601Z,101107.15
2023-04-09T08:42:19.661Z,101100.19
2023-04-09T08:44:24.727Z,101102.61
2023-04-09T08:46:29.756Z,101102.16
2023-04-09T08:48:35.046Z,101100.25
2023-04-09T08:50:40.206Z,101102.48
2023-04-09T08:52:45.212Z,101100.19
2023-04-09T08:54:50.288Z,101103.61
2023-04-09T08:56:55.555Z,101099.75
2023-04-09T08:59:00.614Z,101105.19
2023-04-09T09:01:05.748Z,101104.33
2023-04-09T09:03:11.116Z,101108.41
2023-04-09T09:05:16.446Z,101108.02
2023-04-09T09:07:21.570Z,101103.86
2023-04-09T09:09:26.780Z,101100.98
2023-04-09T09:11:31.818Z,101101.3
2023-04-09T09:13:36.925Z,101101.73
2023-04-09T09:15:42.171Z,101101.22
2023-04-09T09:17:47.442Z,101104.76
2023-04-09T09:19:52.511Z,101106.13
2023-04-09T09:21:57.647Z,101106.74
2023-04-09T09:24:02.846Z,101104.05
2023-04-09T09:26:07.896Z,101108.22
2023-04-09T09:28:13.028Z,101110.84
2023-04-09T09:30:18.065Z,101115.63
2023-04-09T09:32:23.163Z,101115.44
2023-04-09T09:34:28.287Z,101115.31
2023-04-09T09:36:33.348Z,101110.64
2023-04-09T09:38:38.559Z,101110.55
2023-04-09T09:40:43.610Z,101113.69
2023-04-09T09:42:48.688Z,101116.2
2023-04-09T09:44:53.844Z,101113.73
2023-04-09T09:46:58.884Z,101116.36
2023-04-09T09:49:04.104Z,101111.99
2023-04-09T09:51:09.155Z,101109.98
2023-04-09T09:53:14.222Z,101109.08
2023-04-09T09:55:19.335Z,101106.31
2023-04-09T09:57:24.384Z,101103.75
2023-04-09T09:59:29.475Z,101101.94
2023-04-09T10:01:34.713Z,101103.41
2023-04-09T10:03:39.970Z,101099.33
2023-04-09T10:05:45.002Z,101095.13
2023-04-09T10:07:50.078Z,101091.52
2023-04-09T10:09:55.223Z,101091.91
2023-04-09T10:12:00.243Z,101093.31
2023-04-09T10:14:05.304Z,101088.22
2023-04-09T10:16:10.635Z,101089.19
2023-04-09T10:18:15.799Z,101084.75
2023-04-09T10:20:20.852Z,101085.02
2023-04-09T10:22:25.949Z,101089.36
2023-04-09T10:24:30.987Z,101093.11
2023-04-09T10:26:36.034Z,101098.69
2023-04-09T10:28:41.205Z,101106.89
2023-04-09T10:30:46.325Z,101108.22
2023-04-09T10:32:51.595Z,101108.56
2023-04-09T10:34:56.726Z,101100.16
2023-04-09T10:37:01.817Z,101102.58
2023-04-09T10:39:06.976Z,101095.16
2023-04-09T10:41:12.057Z,101092.7
2023-04-09T10:43:17.086Z,101090.72
2023-04-09T10:45:23.705Z,101097.38
2023-04-09T10:47:28.845Z,101097.48
2023-04-09T10:49:33.969Z,101099.73
2023-04-09T10:51:39.000Z,101101.14
2023-04-09T10:53:44.058Z,101097.17
2023-04-09T10:55:49.091Z,101092.12
2023-04-09T10:57:54.246Z,101093.41
2023-04-09T10:59:59.320Z,101091.84
2023-04-09T11:02:04.701Z,101093.42
2023-04-09T11:04:11.990Z,101092.5
2023-04-09T11:06:17.082Z,101090.42
2023-04-09T11:08:22.391Z,101086.77
2023-04-09T11:10:27.514Z,101088.81
2023-04-09T11:12:32.576Z,101094.2
2023-04-09T11:14:37.692Z,101104.42
2023-04-09T11:16:42.886Z,101103.33
2023-04-09T11:18:48.108Z,101102.8
2023-04-09T11:20:53.283Z,101097.16
2023-04-09T11:22:58.305Z,101103.11
2023-04-09T11:25:03.431Z,101101.38
2023-04-09T11:27:08.456Z,101101.2
2023-04-09T11:29:13.558Z,101086.61
2023-04-09T11:31:18.728Z,101086.14
2023-04-09T11:33:23.911Z,101084.36
2023-04-09T11:35:29.003Z,101084.09
2023-04-09T11:37:34.270Z,101085.15
2023-04-09T11:39:39.405Z,101084.88
2023-04-09T11:41:44.466Z,101071.58
2023-04-09T11:43:49.538Z,101077.3
2023-04-09T11:45:55.860Z,101074.86
2023-04-09T11:48:01.842Z,101069.52
2023-04-09T11:50:07.140Z,101084.25
2023-04-09T11:52:12.214Z,101083.8
2023-04-09T11:54:17.268Z,101086.9
2023-04-09T11:56:22.367Z,101090.7
2023-04-09T11:58:27.488Z,101093.11
2023-04-09T12:00:32.626Z,101094.08
2023-04-09T12:02:37.965Z,101095.27
2023-04-09T12:04:43.339Z,101095.44
2023-04-09T12:06:48.597Z,101101.27
2023-04-09T12:08:53.840Z,101102.23
2023-04-09T12:10:58.972Z,101107.02
2023-04-09T12:13:04.021Z,101106.35
2023-04-09T12:15:09.087Z,101106.14
2023-04-09T12:17:14.148Z,101104.05
2023-04-09T12:19:19.166Z,101104.19
2023-04-09T12:21:24.228Z,101098.16
2023-04-09T12:23:29.257Z,101097.09
2023-04-09T12:25:34.336Z,101102.09
2023-04-09T12:27:39.434Z,101108.33
2023-04-09T12:29:44.598Z,101106.73
2023-04-09T12:31:49.834Z,101109.64
2023-04-09T12:33:55.011Z,101110.67
2023-04-09T12:36:00.236Z,101106.76
2023-04-09T12:38:05.531Z,101103.9
2023-04-09T12:40:10.598Z,101098.48
2023-04-09T12:42:15.959Z,101090.89
2023-04-09T12:44:21.078Z,101093.2
2023-04-09T12:46:26.242Z,101096.63
2023-04-09T12:48:31.396Z,101096.95
2023-04-09T12:50:36.430Z,101098.09
2023-04-09T12:52:41.562Z,101098.55
2023-04-09T12:54:47.515Z,101098.31
2023-04-09T12:56:53.828Z,101101.53
2023-04-09T12:58:58.984Z,101097.82
2023-04-09T13:01:04.029Z,101084.02
2023-04-09T13:03:09.584Z,101093.23
2023-04-09T13:05:14.837Z,101089.28
2023-04-09T13:07:19.891Z,101091.48
2023-04-09T13:09:24.985Z,101087.45
2023-04-09T13:11:30.015Z,101094.15
2023-04-09T13:13:35.076Z,101093.49
2023-04-09T13:15:40.146Z,101092.2
2023-04-09T13:17:45.369Z,101093.41
2023-04-09T13:19:50.540Z,101088.22
2023-04-09T13:21:55.686Z,101088.05
2023-04-09T13:24:00.749Z,101091.73
2023-04-09T13:26:05.857Z,101092.77
2023-04-09T13:28:10.946Z,101093.14
2023-04-09T13:30:16.006Z,101090.88
2023-04-09T13:32:21.178Z,101091.77
2023-04-09T13:34:26.286Z,101097.41
2023-04-09T13:36:31.396Z,101091.07
2023-04-09T13:38:36.565Z,101088.96
2023-04-09T13:40:41.755Z,101086.59
2023-04-09T13:42:46.825Z,101083.2
2023-04-09T13:44:51.878Z,101084.42
2023-04-09T13:46:56.975Z,101084.62
2023-04-09T13:49:02.024Z,101085.23
2023-04-09T13:51:07.044Z,101088.78
2023-04-09T13:53:12.251Z,101087.38
2023-04-09T13:55:17.283Z,101086.03
2023-04-09T13:57:22.337Z,101086.48
2023-04-09T13:59:27.379Z,101084.84
2023-04-09T14:01:32.565Z,101081.73
2023-04-09T14:03:38.123Z,101083.62
2023-04-09T14:05:43.478Z,101091.47
2023-04-09T14:07:48.624Z,101087.73
2023-04-09T14:09:53.841Z,101087.66
2023-04-09T14:11:58.982Z,101087.17
2023-04-09T14:14:04.082Z,101088.25
2023-04-09T14:16:09.240Z,101087.08
2023-04-09T14:18:14.367Z,101089.2
2023-04-09T14:20:19.480Z,101080.19
2023-04-09T14:22:24.555Z,101088.88
2023-04-09T14:24:29.570Z,101081.45
2023-04-09T14:26:34.622Z,101087.45
2023-04-09T14:28:39.724Z,101082.67
2023-04-09T14:30:44.863Z,101081.8
2023-04-09T14:32:50.042Z,101079.77
2023-04-09T14:34:55.141Z,101082.22
2023-04-09T14:37:00.180Z,101087
2023-04-09T14:39:05.378Z,101083.22
2023-04-09T14:41:10.431Z,101081.69
2023-04-09T14:43:15.555Z,101084.2
2023-04-09T14:45:20.675Z,101080.54
2023-04-09T14:47:25.841Z,101080.66
2023-04-09T14:49:30.977Z,101078.73
2023-04-09T14:51:36.003Z,101081.75
2023-04-09T14:53:41.119Z,101081.7
2023-04-09T14:55:46.184Z,101076.66
2023-04-09T14:57:51.261Z,101073.5
2023-04-09T14:59:56.438Z,101068.14
2023-04-09T15:02:01.742Z,101063.89
2023-04-09T15:04:07.367Z,101067.41
2023-04-09T15:06:12.763Z,101068.69
2023-04-09T15:08:17.843Z,101059.09
2023-04-09T15:10:22.913Z,101062.92
2023-04-09T15:12:27.954Z,101061.02
2023-04-09T15:14:33.002Z,101064.59
2023-04-09T15:16:38.197Z,101061.06
2023-04-09T15:18:43.636Z,101060.09
2023-04-09T15:20:48.768Z,101062.73
2023-04-09T15:22:53.899Z,101063.41
2023-04-09T15:24:58.959Z,101061.7
2023-04-09T15:27:04.047Z,101064.09
2023-04-09T15:29:09.193Z,101065.74
2023-04-09T15:31:14.465Z,101066.53
2023-04-09T15:33:19.644Z,101059.88
2023-04-09T15:35:24.748Z,101061.89
2023-04-09T15:37:29.858Z,101063.98
2023-04-09T15:39:34.937Z,101062.51
2023-04-09T15:41:39.981Z,101064.28
2023-04-09T15:43:45.049Z,101060.67
2023-04-09T15:45:50.291Z,101061.17
2023-04-09T15:47:55.675Z,101056.73
2023-04-09T15:50:00.878Z,101072.04
2023-04-09T15:52:06.050Z,101066.44
2023-04-09T15:54:11.144Z,101067.08
2023-04-09T15:56:16.247Z,101068.88
2023-04-09T15:58:21.388Z,101066.89
2023-04-09T16:00:26.586Z,101066.16
2023-04-09T16:02:31.779Z,101067.17
2023-04-09T16:04:37.075Z,101065.2
2023-04-09T16:06:42.244Z,101067.48
2023-04-09T16:08:47.437Z,101066.91
2023-04-09T16:10:52.577Z,101065.97
2023-04-09T16:12:57.669Z,101061.31
2023-04-09T16:15:02.811Z,101061.02
2023-04-09T16:17:08.078Z,101063.8
2023-04-09T16:19:13.339Z,101061.04
2023-04-09T16:21:18.556Z,101060.48
2023-04-09T16:23:24.183Z,101063.13
2023-04-09T16:25:29.347Z,101058.34
2023-04-09T16:27:34.462Z,101061.85
2023-04-09T16:29:39.580Z,101061.3
2023-04-09T16:31:45.047Z,101058.2
2023-04-09T16:33:50.479Z,101055.6
2023-04-09T16:35:55.625Z,101056.5
2023-04-09T16:38:00.856Z,101052.72
2023-04-09T16:40:06.129Z,101050.36
2023-04-09T16:42:11.504Z,101049.47
2023-04-09T16:44:16.669Z,101057.27
2023-04-09T16:46:21.932Z,101057.58
2023-04-09T16:48:27.386Z,101055.14
2023-04-09T16:50:32.577Z,101054.92
2023-04-09T16:52:37.758Z,101057.88
2023-04-09T16:54:43.213Z,101060.41
2023-04-09T16:56:48.264Z,101060.25
2023-04-09T16:58:54.155Z,101056.78
2023-04-09T17:00:59.892Z,101052.38
2023-04-09T17:03:05.686Z,101049.56
2023-04-09T17:05:11.134Z,101055.09
2023-04-09T17:07:16.232Z,101055.82
2023-04-09T17:09:21.284Z,101058.34
2023-04-09T17:11:26.370Z,101065.03
2023-04-09T17:13:31.609Z,101059.16
2023-04-09T17:15:37.213Z,101063.99
2023-04-09T17:17:42.417Z,101062.3
2023-04-09T17:19:47.683Z,101065.66
2023-04-09T17:21:52.839Z,101064.81
2023-04-09T17:23:57.955Z,101062.67
2023-04-09T17:26:03.020Z,101065.58
2023-04-09T17:28:08.109Z,101066.44
2023-04-09T17:30:13.222Z,101067.25
2023-04-09T17:32:18.393Z,101068.08
2023-04-09T17:34:23.480Z,101069.38
2023-04-09T17:36:28.602Z,101076.52
2023-04-09T17:38:33.641Z,101072.24
2023-04-09T17:40:38.787Z,101073.68
2023-04-09T17:42:43.882Z,101077.3
2023-04-09T17:44:48.882Z,101079.45
2023-04-09T17:46:54.084Z,101081.98
2023-04-09T17:48:59.347Z,101083.66
2023-04-09T17:51:04.414Z,101080.95
2023-04-09T17:53:09.458Z,101081.33
2023-04-09T17:55:14.523Z,101087.78
2023-04-09T17:57:19.671Z,101083.03
2023-04-09T17:59:24.771Z,101081.43
2023-04-09T18:01:30.181Z,101089.91
2023-04-09T18:03:36.058Z,101097.45
2023-04-09T18:05:41.805Z,101095.34
2023-04-09T18:07:47.355Z,101095.84
2023-04-09T18:09:52.489Z,101094.17
2023-04-09T18:11:57.626Z,101096.36
2023-04-09T18:14:02.692Z,101100
2023-04-09T18:16:07.908Z,101097.09
2023-04-09T18:18:13.134Z,101099.78
2023-04-09T18:20:18.194Z,101101.8
2023-04-09T18:22:23.304Z,101103.64
2023-04-09T18:24:28.337Z,101104.22
2023-04-09T18:26:33.506Z,101106.11
2023-04-09T18:28:38.562Z,101102.52
2023-04-09T18:30:43.623Z,101102.73
2023-04-09T18:32:49.080Z,101104.54
2023-04-09T18:34:54.254Z,101104.4
2023-04-09T18:36:59.432Z,101107.38
2023-04-09T18:39:04.513Z,101108.33
2023-04-09T18:41:09.605Z,101110.45
2023-04-09T18:43:14.775Z,101113.69
2023-04-09T18:45:20.041Z,101114.31
2023-04-09T18:47:25.213Z,101119.6
2023-04-09T18:49:30.376Z,101117.92
2023-04-09T18:51:35.487Z,101124.48
2023-04-09T18:53:40.589Z,101125.68
2023-04-09T18:55:45.757Z,101128.55
2023-04-09T18:57:50.871Z,101126.56
2023-04-09T18:59:55.943Z,101127.25
2023-04-09T19:02:01.331Z,101127.45
2023-04-09T19:04:06.718Z,101132.63
2023-04-09T19:06:11.894Z,101132.83
2023-04-09T19:08:16.942Z,101133.58
2023-04-09T19:10:22.058Z,101131.94
2023-04-09T19:12:27.220Z,101135.84
2023-04-09T19:14:32.244Z,101139.19
2023-04-09T19:16:37.668Z,101138.33
2023-04-09T19:18:42.944Z,101143.45
2023-04-09T19:20:48.121Z,101144.52
2023-04-09T19:22:53.186Z,101142.09
2023-04-09T19:24:58.370Z,101147
2023-04-09T19:27:03.424Z,101143.45
2023-04-09T19:29:08.609Z,101147.62
2023-04-09T19:31:13.927Z,101148.7
2023-04-09T19:33:19.043Z,101149.11
2023-04-09T19:35:24.227Z,101140.8
2023-04-09T19:37:29.569Z,101146.44
2023-04-09T19:39:34.999Z,101147.56
2023-04-09T19:41:40.184Z,101149.57
2023-04-09T19:43:45.299Z,101146.42
2023-04-09T19:45:50.434Z,101151.81
2023-04-09T19:47:57.301Z,101152.42
2023-04-09T19:50:02.566Z,101148.57
2023-04-09T19:52:07.736Z,101147.2
2023-04-09T19:54:12.892Z,101148.09
2023-04-09T19:56:17.966Z,101150.69
2023-04-09T19:58:23.062Z,101157.38
2023-04-09T20:00:28.134Z,101154.02
2023-04-09T20:02:33.436Z,101150.23
2023-04-09T20:04:38.665Z,101149.38
2023-04-09T20:06:43.627Z,101152.35
2023-04-09T20:08:48.707Z,101154.89
2023-04-09T20:10:53.733Z,101154.95
2023-04-09T20:12:58.817Z,101157.39
2023-04-09T20:15:03.928Z,101156.74
2023-04-09T20:17:10.214Z,101155.67
2023-04-09T20:19:15.277Z,101154.88
2023-04-09T20:21:20.368Z,101152.14
2023-04-09T20:23:25.512Z,101151.16
2023-04-09T20:25:30.654Z,101151.36
2023-04-09T20:27:35.877Z,101151.77
2023-04-09T20:29:41.054Z,101152.27
2023-04-09T20:31:46.210Z,101151.71
2023-04-09T20:33:51.370Z,101152.98
2023-04-09T20:35:56.570Z,101155.38
2023-04-09T20:38:01.733Z,101155.66
2023-04-09T20:40:06.948Z,101152.3
2023-04-09T20:42:11.997Z,101153.63
2023-04-09T20:44:17.052Z,101151.52
2023-04-09T20:46:22.288Z,101151.99
2023-04-09T20:48:27.530Z,101149.13
2023-04-09T20:50:32.569Z,101149.68
2023-04-09T20:52:37.698Z,101150.5
2023-04-09T20:54:42.760Z,101152.62
2023-04-09T20:56:47.829Z,101150.2
2023-04-09T20:58:53.269Z,101147.46
2023-04-09T21:00:58.817Z,101144.79
2023-04-09T21:03:04.490Z,101146.3
2023-04-09T21:05:24.430Z,101146.84
2023-04-09T21:07:31.149Z,101145.69
2023-04-09T21:09:36.283Z,101149.41
2023-04-09T21:11:41.394Z,101148.56
2023-04-09T21:13:54.838Z,101143.47
2023-04-09T21:16:00.396Z,101143.47
2023-04-09T21:18:05.656Z,101141.88
2023-04-09T21:20:11.082Z,101141.2
2023-04-09T21:22:16.165Z,101147.38
2023-04-09T21:24:21.270Z,101147.83
2023-04-09T21:26:26.453Z,101147.92
2023-04-09T21:28:37.523Z,101147.05
2023-04-09T21:30:42.680Z,101149.61
2023-04-09T21:32:47.934Z,101144.73
2023-04-09T21:34:53.220Z,101145.15
2023-04-09T21:36:58.355Z,101146.69
2023-04-09T21:39:03.432Z,101146.73
2023-04-09T21:41:08.534Z,101147.66
2023-04-09T21:43:13.821Z,101143.48
2023-04-09T21:45:18.921Z,101140.3
2023-04-09T21:47:24.061Z,101141.47
2023-04-09T21:49:29.199Z,101143.55
2023-04-09T21:51:34.401Z,101144.3
2023-04-09T21:53:39.524Z,101147.57
2023-04-09T21:55:44.594Z,101146.95
2023-04-09T21:57:49.657Z,101150.33
2023-04-09T21:59:54.820Z,101149.17
2023-04-09T22:01:59.996Z,101149.41
2023-04-09T22:04:05.913Z,101152.83
2023-04-09T22:06:11.081Z,101156.28
2023-04-09T22:08:16.186Z,101155.33
2023-04-09T22:10:21.265Z,101160.61
2023-04-09T22:12:26.287Z,101160.24
2023-04-09T22:14:31.520Z,101157.61
2023-04-09T22:16:36.579Z,101159.06
2023-04-09T22:18:41.636Z,101153.89
2023-04-09T22:20:46.788Z,101155.23
2023-04-09T22:22:51.810Z,101156.11
2023-04-09T22:24:56.881Z,101152.84
2023-04-09T22:27:01.933Z,101150.25
2023-04-09T22:29:08.202Z,101150.83
2023-04-09T22:31:13.305Z,101146.94
2023-04-09T22:33:18.373Z,101148.04
2023-04-09T22:35:23.537Z,101147.49
2023-04-09T22:37:28.628Z,101140.03
2023-04-09T22:39:33.747Z,101143.07
2023-04-09T22:41:38.779Z,101142.11
2023-04-09T22:43:43.884Z,101146.09
2023-04-09T22:45:48.981Z,101148.2
2023-04-09T22:47:54.095Z,101145.95
2023-04-09T22:49:59.247Z,101145.8
2023-04-09T22:52:04.381Z,101145.67
2023-04-09T22:54:09.521Z,101144.06
2023-04-09T22:56:14.620Z,101144.44
2023-04-09T22:58:19.724Z,101148.91
2023-04-09T23:00:24.799Z,101151.38
2023-04-09T23:02:30.089Z,101150.61
2023-04-09T23:04:35.504Z,101146.55
2023-04-09T23:06:40.802Z,101144.19
2023-04-09T23:08:46.007Z,101144.45
2023-04-09T23:10:51.023Z,101147.33
2023-04-09T23:12:56.152Z,101146.88
2023-04-09T23:15:01.412Z,101142.48
2023-04-09T23:17:06.577Z,101146.38
2023-04-09T23:19:11.594Z,101148.87
2023-04-09T23:21:16.772Z,101147.27
2023-04-09T23:23:21.919Z,101143.64
2023-04-09T23:25:26.987Z,101139.55
2023-04-09T23:27:32.083Z,101139.13
2023-04-09T23:29:37.098Z,101138.31
2023-04-09T23:31:42.222Z,101136.08
2023-04-09T23:33:47.387Z,101132.59
2023-04-09T23:35:52.743Z,101129.22
2023-04-09T23:37:57.956Z,101130.31
2023-04-09T23:40:03.002Z,101132.08
2023-04-09T23:42:08.052Z,101136.17
2023-04-09T23:44:13.158Z,101135.15
2023-04-09T23:46:18.184Z,101132.34
2023-04-09T23:48:23.480Z,101136.2
2023-04-09T23:50:28.593Z,101135.8
2023-04-09T23:52:33.619Z,101134.73